createdAt,value
2018-01-14T05:00:42.522Z,0
2018-01-14T05:01:08.013Z,0
2018-01-14T05:02:11.592Z,0
2018-01-14T05:02:37.098Z,0
2018-01-14T05:03:02.592Z,0
2018-01-14T05:03:28.037Z,0
2018-01-14T05:03:53.487Z,0
2018-01-14T05:04:19.040Z,0
2018-01-14T05:04:44.498Z,0
2018-01-14T05:06:03.444Z,0
2018-01-14T05:06:28.925Z,0
2018-01-14T05:06:54.447Z,0
2018-01-14T05:07:19.909Z,0
2018-01-14T05:07:45.390Z,0
2018-01-14T05:08:10.897Z,0
2018-01-14T05:08:36.378Z,0
2018-01-14T05:09:01.852Z,0
2018-01-14T05:09:27.332Z,0
2018-01-14T05:10:51.320Z,0
2018-01-14T05:11:16.820Z,0
2018-01-14T05:11:42.348Z,0
2018-01-14T05:12:07.843Z,0
2018-01-14T05:12:33.368Z,0
2018-01-14T05:12:58.870Z,0
2018-01-14T05:13:24.410Z,0
2018-01-14T05:13:49.892Z,0
2018-01-14T05:14:15.403Z,0
2018-01-14T05:14:40.910Z,0
2018-01-14T05:15:06.410Z,0
2018-01-14T05:15:31.968Z,0
2018-01-14T05:15:57.468Z,0
2018-01-14T05:16:22.983Z,0
2018-01-14T05:16:48.465Z,0
2018-01-14T05:17:13.979Z,0
2018-01-14T05:17:39.466Z,0
2018-01-14T05:18:04.957Z,0
2018-01-14T05:18:30.450Z,0
2018-01-14T05:18:55.955Z,0
2018-01-14T05:19:21.444Z,0
2018-01-14T05:19:46.954Z,0
2018-01-14T05:20:12.465Z,0
2018-01-14T05:20:37.972Z,0
2018-01-14T05:21:03.455Z,0
2018-01-14T05:21:28.969Z,0
2018-01-14T05:21:54.529Z,0
2018-01-14T05:22:20.011Z,0
2018-01-14T05:22:45.483Z,0
2018-01-14T05:23:10.965Z,0
2018-01-14T05:23:36.420Z,0
2018-01-14T05:24:01.918Z,0
2018-01-14T05:24:27.445Z,0
2018-01-14T05:24:52.929Z,0
2018-01-14T05:25:18.419Z,0
2018-01-14T05:25:43.904Z,0
2018-01-14T05:26:09.385Z,0
2018-01-14T05:26:34.878Z,0
2018-01-14T05:27:58.929Z,0
2018-01-14T05:28:24.425Z,0
2018-01-14T05:28:49.912Z,0
2018-01-14T05:29:15.392Z,0
2018-01-14T05:29:40.903Z,0
2018-01-14T05:30:06.420Z,0
2018-01-14T05:30:31.945Z,0
2018-01-14T05:30:57.429Z,0
2018-01-14T05:31:22.926Z,0
2018-01-14T05:31:48.414Z,0
2018-01-14T05:32:13.885Z,0
2018-01-14T05:32:39.361Z,0
2018-01-14T05:33:04.865Z,0
2018-01-14T05:33:30.359Z,0
2018-01-14T05:33:55.858Z,0
2018-01-14T05:34:21.312Z,0
2018-01-14T05:34:46.805Z,0
2018-01-14T05:35:12.297Z,0
2018-01-14T05:35:37.757Z,0
2018-01-14T05:36:03.235Z,0
2018-01-14T05:36:28.737Z,0
2018-01-14T05:36:54.234Z,0
2018-01-14T05:37:57.851Z,0
2018-01-14T05:38:23.343Z,0
2018-01-14T05:38:48.828Z,0
2018-01-14T05:39:14.290Z,0
2018-01-14T05:39:39.804Z,0
2018-01-14T05:40:05.315Z,0
2018-01-14T05:40:30.818Z,0
2018-01-14T05:40:56.300Z,0
2018-01-14T05:41:21.786Z,0
2018-01-14T05:41:47.280Z,0
2018-01-14T05:42:12.791Z,0
2018-01-14T05:42:38.279Z,0
2018-01-14T05:43:03.799Z,0
2018-01-14T05:43:29.274Z,0
2018-01-14T05:43:54.749Z,0
2018-01-14T05:44:20.269Z,0
2018-01-14T05:44:45.745Z,0
2018-01-14T05:45:11.214Z,0
2018-01-14T05:45:36.691Z,0
2018-01-14T05:46:02.197Z,0
2018-01-14T05:46:27.716Z,0
2018-01-14T05:46:53.224Z,0
2018-01-14T05:47:18.710Z,0
2018-01-14T05:47:44.182Z,0
2018-01-14T05:48:09.683Z,0
2018-01-14T05:48:35.155Z,0
2018-01-14T05:49:00.646Z,0
2018-01-14T05:49:26.150Z,0
2018-01-14T05:49:51.622Z,0
2018-01-14T05:50:17.111Z,0
2018-01-14T05:50:42.588Z,0
2018-01-14T05:51:08.055Z,0
2018-01-14T05:51:33.548Z,0
2018-01-14T05:51:59.004Z,0
2018-01-14T05:52:24.506Z,0
2018-01-14T05:52:49.993Z,0
2018-01-14T05:53:15.481Z,0
2018-01-14T05:53:40.953Z,0
2018-01-14T05:54:06.472Z,0
2018-01-14T05:54:31.945Z,0
2018-01-14T05:54:57.428Z,0
2018-01-14T05:56:11.249Z,0
2018-01-14T05:56:36.727Z,0
2018-01-14T05:57:02.239Z,0
2018-01-14T05:57:27.708Z,0
2018-01-14T05:57:53.197Z,0
2018-01-14T05:58:18.738Z,0
2018-01-14T05:58:44.207Z,0
2018-01-14T05:59:09.669Z,0
2018-01-14T05:59:35.183Z,0
2018-01-14T06:00:00.669Z,0
2018-01-14T06:00:26.179Z,0
2018-01-14T06:00:51.687Z,0
2018-01-14T06:01:17.147Z,0
2018-01-14T06:01:42.617Z,0
2018-01-14T06:02:08.071Z,0
2018-01-14T06:02:33.578Z,0
2018-01-14T06:02:59.072Z,0
2018-01-14T06:03:24.524Z,0
2018-01-14T06:03:50.068Z,0
2018-01-14T06:04:15.519Z,0
2018-01-14T06:04:41.015Z,0
2018-01-14T06:06:05.043Z,0
2018-01-14T06:06:30.527Z,0
2018-01-14T06:06:56.004Z,0
2018-01-14T06:08:15.001Z,0
2018-01-14T06:08:40.499Z,0
2018-01-14T06:09:05.962Z,0
2018-01-14T06:09:31.436Z,0
2018-01-14T06:09:56.929Z,0
2018-01-14T06:11:15.996Z,0
2018-01-14T06:11:41.487Z,0
2018-01-14T06:12:06.990Z,0
2018-01-14T06:12:32.478Z,0
2018-01-14T06:12:58.044Z,0
2018-01-14T06:13:23.514Z,0
2018-01-14T06:13:48.995Z,0
2018-01-14T06:14:14.556Z,0
2018-01-14T06:14:40.060Z,0
2018-01-14T06:15:05.514Z,0
2018-01-14T06:15:31.008Z,0
2018-01-14T06:15:56.496Z,0
2018-01-14T06:16:22.052Z,0
2018-01-14T06:16:47.546Z,0
2018-01-14T06:17:12.991Z,0
2018-01-14T06:17:38.485Z,0
2018-01-14T06:18:03.952Z,0
2018-01-14T06:18:29.475Z,0
2018-01-14T06:18:54.961Z,0
2018-01-14T06:19:20.467Z,0
2018-01-14T06:19:45.956Z,0
2018-01-14T06:20:11.457Z,0
2018-01-14T06:20:36.956Z,0
2018-01-14T06:21:02.445Z,0
2018-01-14T06:21:27.924Z,0
2018-01-14T06:21:53.457Z,0
2018-01-14T06:22:18.983Z,0
2018-01-14T06:22:44.440Z,0
2018-01-14T06:23:09.963Z,0
2018-01-14T06:23:35.441Z,0
2018-01-14T06:24:00.959Z,0
2018-01-14T06:24:26.430Z,0
2018-01-14T06:24:51.935Z,0
2018-01-14T06:25:17.429Z,0
2018-01-14T06:25:42.917Z,0
2018-01-14T06:26:08.426Z,0
2018-01-14T06:26:33.894Z,0
2018-01-14T06:26:59.397Z,0
2018-01-14T06:27:24.868Z,0
2018-01-14T06:27:50.341Z,0
2018-01-14T06:28:15.841Z,0
2018-01-14T06:28:41.284Z,0
2018-01-14T06:30:00.214Z,0
2018-01-14T06:30:25.695Z,0
2018-01-14T06:30:51.180Z,0
2018-01-14T06:31:16.675Z,0
2018-01-14T06:31:42.195Z,0
2018-01-14T06:32:07.698Z,0
2018-01-14T06:32:33.210Z,0
2018-01-14T06:32:58.660Z,0
2018-01-14T06:33:24.143Z,0
2018-01-14T06:33:49.653Z,0
2018-01-14T06:34:15.159Z,0
2018-01-14T06:34:40.611Z,0
2018-01-14T06:35:06.108Z,0
2018-01-14T06:35:31.590Z,0
2018-01-14T06:35:57.103Z,0
2018-01-14T06:36:22.587Z,0
2018-01-14T06:36:48.085Z,0
2018-01-14T06:38:06.529Z,0
2018-01-14T06:38:32.020Z,0
2018-01-14T06:38:57.524Z,0
2018-01-14T06:39:23.025Z,0
2018-01-14T06:39:48.528Z,0
2018-01-14T06:40:14.022Z,0
2018-01-14T06:40:39.537Z,0
2018-01-14T06:41:05.018Z,0
2018-01-14T06:41:30.495Z,0
2018-01-14T06:41:56.002Z,0
2018-01-14T06:42:21.477Z,0
2018-01-14T06:43:45.484Z,0
2018-01-14T06:44:10.968Z,0
2018-01-14T06:44:36.458Z,0
2018-01-14T06:45:01.994Z,0
2018-01-14T06:45:27.421Z,0
2018-01-14T06:46:51.439Z,0
2018-01-14T06:47:16.946Z,0
2018-01-14T06:47:42.424Z,0
2018-01-14T06:48:07.942Z,0
2018-01-14T06:48:33.420Z,0
2018-01-14T06:48:58.939Z,0
2018-01-14T06:49:24.458Z,0
2018-01-14T06:49:49.923Z,0
2018-01-14T06:50:15.441Z,0
2018-01-14T06:50:40.945Z,0
2018-01-14T06:51:06.422Z,0
2018-01-14T06:51:31.939Z,0
2018-01-14T06:51:57.416Z,0
2018-01-14T06:52:22.929Z,0
2018-01-14T06:52:48.411Z,0
2018-01-14T06:53:13.932Z,0
2018-01-14T06:53:39.429Z,0
2018-01-14T06:54:04.981Z,0
2018-01-14T06:54:30.457Z,0
2018-01-14T06:54:55.995Z,0
2018-01-14T06:56:09.753Z,0
2018-01-14T06:56:35.241Z,0
2018-01-14T06:57:00.752Z,0
2018-01-14T06:57:26.195Z,0
2018-01-14T06:57:51.666Z,0
2018-01-14T06:58:17.198Z,0
2018-01-14T06:58:42.665Z,0
2018-01-14T06:59:08.198Z,0
2018-01-14T06:59:33.715Z,0
2018-01-14T06:59:59.207Z,0
2018-01-14T07:00:24.691Z,0
2018-01-14T07:00:50.199Z,0
2018-01-14T07:01:15.680Z,0
2018-01-14T07:01:41.173Z,0
2018-01-14T07:02:06.681Z,4
2018-01-14T07:02:32.179Z,4
2018-01-14T07:02:57.664Z,4
2018-01-14T07:03:23.196Z,4
2018-01-14T07:03:48.684Z,4
2018-01-14T07:04:51.835Z,0
2018-01-14T07:05:17.272Z,0
2018-01-14T07:05:42.751Z,0
2018-01-14T07:06:08.220Z,4
2018-01-14T07:06:33.729Z,4
2018-01-14T07:07:37.350Z,4
2018-01-14T07:08:02.859Z,4
2018-01-14T07:08:28.340Z,4
2018-01-14T07:08:53.842Z,0
2018-01-14T07:09:19.353Z,4
2018-01-14T07:09:44.823Z,4
2018-01-14T07:10:10.369Z,4
2018-01-14T07:10:35.833Z,4
2018-01-14T07:11:01.337Z,4
2018-01-14T07:11:26.809Z,8
2018-01-14T07:11:52.300Z,4
2018-01-14T07:12:17.780Z,4
2018-01-14T07:12:43.331Z,4
2018-01-14T07:14:02.234Z,8
2018-01-14T07:14:27.735Z,8
2018-01-14T07:14:53.242Z,8
2018-01-14T07:15:18.756Z,8
2018-01-14T07:15:44.231Z,8
2018-01-14T07:16:09.693Z,8
2018-01-14T07:16:35.182Z,8
2018-01-14T07:17:38.760Z,8
2018-01-14T07:18:04.237Z,12
2018-01-14T07:18:29.735Z,12
2018-01-14T07:18:55.155Z,12
2018-01-14T07:19:20.619Z,16
2018-01-14T07:19:46.114Z,16
2018-01-14T07:20:11.654Z,12
2018-01-14T07:20:37.153Z,16
2018-01-14T07:21:02.662Z,16
2018-01-14T07:21:28.139Z,20
2018-01-14T07:21:53.636Z,16
2018-01-14T07:22:19.137Z,20
2018-01-14T07:22:44.614Z,16
2018-01-14T07:23:10.163Z,20
2018-01-14T07:23:35.687Z,20
2018-01-14T07:24:01.188Z,20
2018-01-14T07:26:18.834Z,28
2018-01-14T07:26:44.356Z,28
2018-01-14T07:27:09.820Z,32
2018-01-14T07:27:35.323Z,32
2018-01-14T07:28:00.812Z,32
2018-01-14T07:28:26.293Z,32
2018-01-14T07:29:50.303Z,36
2018-01-14T07:30:15.801Z,40
2018-01-14T07:30:41.304Z,40
2018-01-14T07:31:06.776Z,44
2018-01-14T07:31:32.255Z,40
2018-01-14T07:31:57.811Z,48
2018-01-14T07:32:23.312Z,44
2018-01-14T07:32:48.876Z,44
2018-01-14T07:33:14.391Z,48
2018-01-14T07:34:18.008Z,48
2018-01-14T07:34:43.493Z,52
2018-01-14T07:35:08.988Z,52
2018-01-14T07:35:34.477Z,56
2018-01-14T07:35:59.954Z,60
2018-01-14T07:36:25.487Z,64
2018-01-14T07:37:39.287Z,68
2018-01-14T07:38:04.791Z,68
2018-01-14T07:38:30.281Z,72
2018-01-14T07:38:55.739Z,76
2018-01-14T07:39:21.265Z,76
2018-01-14T07:39:46.773Z,76
2018-01-14T07:40:12.271Z,80
2018-01-14T07:40:37.776Z,80
2018-01-14T07:41:03.285Z,80
2018-01-14T07:41:28.751Z,84
2018-01-14T07:42:32.363Z,92
2018-01-14T07:42:57.860Z,92
2018-01-14T07:43:23.365Z,96
2018-01-14T07:43:48.918Z,96
2018-01-14T07:44:14.364Z,100
2018-01-14T07:44:39.860Z,100
2018-01-14T07:45:05.346Z,104
2018-01-14T07:45:30.814Z,104
2018-01-14T07:45:56.326Z,104
2018-01-14T07:46:21.856Z,108
2018-01-14T07:46:47.336Z,108
2018-01-14T07:47:12.837Z,112
2018-01-14T07:47:38.316Z,112
2018-01-14T07:48:03.823Z,116
2018-01-14T07:48:29.332Z,116
2018-01-14T07:48:54.799Z,120
2018-01-14T07:49:20.332Z,120
2018-01-14T07:49:45.825Z,128
2018-01-14T07:50:11.288Z,124
2018-01-14T07:50:36.819Z,128
2018-01-14T07:51:02.322Z,128
2018-01-14T07:51:27.782Z,128
2018-01-14T07:51:53.280Z,132
2018-01-14T07:52:18.756Z,140
2018-01-14T07:53:32.554Z,152
2018-01-14T07:53:58.043Z,152
2018-01-14T07:54:23.560Z,156
2018-01-14T07:54:49.049Z,160
2018-01-14T07:55:14.550Z,168
2018-01-14T07:55:40.034Z,172
2018-01-14T07:56:05.530Z,172
2018-01-14T07:56:31.051Z,172
2018-01-14T07:56:56.657Z,176
2018-01-14T07:57:22.109Z,184
2018-01-14T07:57:47.606Z,192
2018-01-14T07:58:13.086Z,196
2018-01-14T07:58:38.594Z,200
2018-01-14T07:59:04.111Z,204
2018-01-14T07:59:29.632Z,204
2018-01-14T07:59:55.135Z,208
2018-01-14T08:00:20.615Z,212
2018-01-14T08:00:46.154Z,216
2018-01-14T08:01:11.640Z,224
2018-01-14T08:01:37.160Z,228
2018-01-14T08:02:02.678Z,236
2018-01-14T08:02:28.187Z,240
2018-01-14T08:03:31.814Z,244
2018-01-14T08:03:57.341Z,248
2018-01-14T08:04:22.867Z,248
2018-01-14T08:04:48.375Z,256
2018-01-14T08:05:13.873Z,260
2018-01-14T08:05:39.353Z,272
2018-01-14T08:06:04.847Z,276
2018-01-14T08:06:30.346Z,272
2018-01-14T08:06:55.809Z,268
2018-01-14T08:07:21.264Z,268
2018-01-14T08:07:46.739Z,272
2018-01-14T08:08:12.254Z,276
2018-01-14T08:09:20.970Z,288
2018-01-14T08:09:46.452Z,288
2018-01-14T08:10:11.941Z,292
2018-01-14T08:10:37.448Z,292
2018-01-14T08:11:02.915Z,296
2018-01-14T08:11:28.415Z,292
2018-01-14T08:11:53.926Z,296
2018-01-14T08:12:19.415Z,296
2018-01-14T08:12:44.909Z,304
2018-01-14T08:13:10.394Z,312
2018-01-14T08:14:24.351Z,316
2018-01-14T08:14:49.852Z,324
2018-01-14T08:15:15.313Z,324
2018-01-14T08:15:40.851Z,324
2018-01-14T08:16:06.357Z,328
2018-01-14T08:16:31.845Z,336
2018-01-14T08:16:57.321Z,340
2018-01-14T08:17:22.785Z,344
2018-01-14T08:17:48.279Z,348
2018-01-14T08:18:13.748Z,348
2018-01-14T08:18:39.263Z,348
2018-01-14T08:19:04.794Z,352
2018-01-14T08:19:30.227Z,356
2018-01-14T08:19:55.755Z,364
2018-01-14T08:20:21.202Z,372
2018-01-14T08:20:46.680Z,376
2018-01-14T08:21:12.169Z,376
2018-01-14T08:21:37.623Z,388
2018-01-14T08:22:03.107Z,396
2018-01-14T08:22:28.587Z,404
2018-01-14T08:22:54.089Z,408
2018-01-14T08:23:19.507Z,408
2018-01-14T08:23:45.036Z,408
2018-01-14T08:24:10.481Z,420
2018-01-14T08:24:35.958Z,428
2018-01-14T08:25:01.407Z,428
2018-01-14T08:25:26.868Z,436
2018-01-14T08:25:52.297Z,448
2018-01-14T08:26:17.765Z,456
2018-01-14T08:26:43.265Z,472
2018-01-14T08:27:08.751Z,484
2018-01-14T08:27:34.323Z,488
2018-01-14T08:27:59.760Z,488
2018-01-14T08:28:25.257Z,484
2018-01-14T08:28:50.714Z,480
2018-01-14T08:29:16.181Z,488
2018-01-14T08:29:41.688Z,504
2018-01-14T08:30:07.124Z,508
2018-01-14T08:30:32.596Z,516
2018-01-14T08:30:58.089Z,516
2018-01-14T08:31:23.636Z,528
2018-01-14T08:31:49.127Z,536
2018-01-14T08:32:14.626Z,540
2018-01-14T08:32:40.124Z,544
2018-01-14T08:33:05.629Z,552
2018-01-14T08:33:31.143Z,556
2018-01-14T08:33:56.645Z,552
2018-01-14T08:34:22.143Z,556
2018-01-14T08:34:47.660Z,560
2018-01-14T08:35:13.142Z,560
2018-01-14T08:35:38.651Z,564
2018-01-14T08:36:04.109Z,572
2018-01-14T08:36:29.646Z,584
2018-01-14T08:37:53.603Z,588
2018-01-14T08:38:19.131Z,584
2018-01-14T08:38:44.652Z,584
2018-01-14T08:39:10.132Z,592
2018-01-14T08:39:35.629Z,592
2018-01-14T08:40:01.098Z,592
2018-01-14T08:40:26.576Z,596
2018-01-14T08:40:52.041Z,600
2018-01-14T08:41:17.560Z,616
2018-01-14T08:41:43.020Z,640
2018-01-14T08:42:08.502Z,648
2018-01-14T08:42:33.984Z,648
2018-01-14T08:42:59.502Z,644
2018-01-14T08:43:25.038Z,648
2018-01-14T08:43:50.520Z,664
2018-01-14T08:44:15.990Z,680
2018-01-14T08:44:41.546Z,688
2018-01-14T08:45:07.029Z,696
2018-01-14T08:45:32.481Z,704
2018-01-14T08:45:57.990Z,712
2018-01-14T08:46:23.477Z,728
2018-01-14T08:46:48.956Z,736
2018-01-14T08:47:14.468Z,752
2018-01-14T08:47:39.982Z,756
2018-01-14T08:48:05.457Z,756
2018-01-14T08:48:30.946Z,756
2018-01-14T08:48:56.472Z,756
2018-01-14T08:49:21.982Z,756
2018-01-14T08:49:47.467Z,744
2018-01-14T08:51:01.265Z,804
2018-01-14T08:51:26.748Z,812
2018-01-14T08:51:52.246Z,820
2018-01-14T08:52:17.818Z,840
2018-01-14T08:52:43.277Z,860
2018-01-14T08:53:08.737Z,868
2018-01-14T08:53:34.250Z,880
2018-01-14T08:53:59.744Z,880
2018-01-14T08:54:25.212Z,872
2018-01-14T08:54:50.665Z,856
2018-01-14T08:55:16.110Z,860
2018-01-14T08:55:41.576Z,872
2018-01-14T08:56:07.078Z,884
2018-01-14T08:56:32.554Z,884
2018-01-14T08:56:58.034Z,888
2018-01-14T08:57:23.441Z,904
2018-01-14T08:57:48.916Z,932
2018-01-14T08:58:14.385Z,960
2018-01-14T08:59:38.391Z,1012
2018-01-14T09:00:03.885Z,1012
2018-01-14T09:00:29.395Z,1008
2018-01-14T09:00:54.876Z,1020
2018-01-14T09:01:20.383Z,1024
2018-01-14T09:01:45.850Z,1040
2018-01-14T09:02:11.341Z,1056
2018-01-14T09:02:36.814Z,1064
2018-01-14T09:03:02.308Z,1080
2018-01-14T09:03:27.827Z,1088
2018-01-14T09:03:53.270Z,1068
2018-01-14T09:04:18.774Z,1044
2018-01-14T09:04:44.243Z,1060
2018-01-14T09:05:09.769Z,1104
2018-01-14T09:05:35.260Z,1140
2018-01-14T09:06:00.758Z,1152
2018-01-14T09:06:26.236Z,1144
2018-01-14T09:06:51.690Z,1128
2018-01-14T09:07:17.141Z,1116
2018-01-14T09:07:42.659Z,1112
2018-01-14T09:08:08.153Z,1132
2018-01-14T09:08:33.630Z,1152
2018-01-14T09:08:59.132Z,1128
2018-01-14T09:09:24.582Z,1092
2018-01-14T09:09:50.068Z,1088
2018-01-14T09:10:15.542Z,1108
2018-01-14T09:10:41.018Z,1124
2018-01-14T09:11:54.782Z,1172
2018-01-14T09:12:20.253Z,1160
2018-01-14T09:12:45.758Z,1172
2018-01-14T09:13:11.240Z,1192
2018-01-14T09:13:36.691Z,1196
2018-01-14T09:14:02.170Z,1192
2018-01-14T09:14:27.682Z,1196
2018-01-14T09:14:53.137Z,1236
2018-01-14T09:15:18.614Z,1248
2018-01-14T09:15:44.115Z,1260
2018-01-14T09:16:09.569Z,1292
2018-01-14T09:16:35.071Z,1296
2018-01-14T09:17:53.981Z,1320
2018-01-14T09:18:19.489Z,1324
2018-01-14T09:18:45.069Z,1340
2018-01-14T09:19:10.534Z,1368
2018-01-14T09:19:36.005Z,1376
2018-01-14T09:20:01.478Z,1364
2018-01-14T09:20:26.974Z,1396
2018-01-14T09:20:52.409Z,1460
2018-01-14T09:21:17.895Z,1496
2018-01-14T09:21:43.348Z,1504
2018-01-14T09:22:08.808Z,1500
2018-01-14T09:22:34.293Z,1488
2018-01-14T09:22:59.788Z,1484
2018-01-14T09:23:25.286Z,1476
2018-01-14T09:23:50.738Z,1464
2018-01-14T09:24:16.250Z,1444
2018-01-14T09:24:41.728Z,1464
2018-01-14T09:25:07.281Z,1492
2018-01-14T09:25:32.705Z,1464
2018-01-14T09:25:58.246Z,1424
2018-01-14T09:26:23.707Z,1420
2018-01-14T09:26:49.158Z,1456
2018-01-14T09:27:14.616Z,1496
2018-01-14T09:27:40.111Z,1524
2018-01-14T09:28:05.550Z,1516
2018-01-14T09:28:31.017Z,1504
2018-01-14T09:28:56.520Z,1484
2018-01-14T09:29:21.950Z,1476
2018-01-14T09:29:47.409Z,1508
2018-01-14T09:30:12.886Z,1556
2018-01-14T09:30:38.443Z,1608
2018-01-14T09:31:03.933Z,1644
2018-01-14T09:31:29.393Z,1640
2018-01-14T09:31:54.900Z,1676
2018-01-14T09:32:20.330Z,1728
2018-01-14T09:32:45.809Z,1736
2018-01-14T09:33:11.340Z,1728
2018-01-14T09:33:36.838Z,1720
2018-01-14T09:34:02.278Z,1728
2018-01-14T09:34:27.754Z,1728
2018-01-14T09:34:53.222Z,1736
2018-01-14T09:35:18.692Z,1808
2018-01-14T09:35:44.374Z,1792
2018-01-14T09:36:09.860Z,1808
2018-01-14T09:36:35.368Z,1876
2018-01-14T09:37:00.895Z,1896
2018-01-14T09:37:26.342Z,1924
2018-01-14T09:37:51.805Z,1940
2018-01-14T09:38:17.285Z,1948
2018-01-14T09:38:43.055Z,1984
2018-01-14T09:39:08.525Z,2024
2018-01-14T09:39:33.956Z,2040
2018-01-14T09:39:59.457Z,2024
2018-01-14T09:40:24.930Z,1984
2018-01-14T09:40:50.400Z,1976
2018-01-14T09:42:09.319Z,2060
2018-01-14T09:42:34.790Z,2092
2018-01-14T09:43:00.289Z,2040
2018-01-14T09:43:25.737Z,2000
2018-01-14T09:43:51.201Z,2048
2018-01-14T09:44:16.686Z,2100
2018-01-14T09:44:42.218Z,2084
2018-01-14T09:45:07.654Z,2084
2018-01-14T09:45:33.147Z,2132
2018-01-14T09:45:58.599Z,2140
2018-01-14T09:46:24.071Z,2092
2018-01-14T09:46:49.550Z,2096
2018-01-14T09:47:14.999Z,2140
2018-01-14T09:47:40.491Z,2216
2018-01-14T09:48:59.586Z,2316
2018-01-14T09:49:25.078Z,2348
2018-01-14T09:49:50.558Z,2364
2018-01-14T09:50:15.997Z,2408
2018-01-14T09:50:41.508Z,2468
2018-01-14T09:51:06.957Z,2540
2018-01-14T09:51:32.483Z,2580
2018-01-14T09:51:57.985Z,2520
2018-01-14T09:52:23.446Z,2496
2018-01-14T09:52:48.987Z,2536
2018-01-14T09:53:14.501Z,2636
2018-01-14T09:53:39.999Z,2712
2018-01-14T09:54:05.498Z,2708
2018-01-14T09:54:30.997Z,2788
2018-01-14T09:54:56.446Z,2808
2018-01-14T09:56:15.377Z,2928
2018-01-14T09:56:40.862Z,2836
2018-01-14T09:57:06.367Z,2780
2018-01-14T09:57:31.837Z,2844
2018-01-14T09:57:57.311Z,2876
2018-01-14T09:58:22.802Z,2840
2018-01-14T09:58:48.244Z,2804
2018-01-14T09:59:13.851Z,2840
2018-01-14T09:59:39.312Z,2840
2018-01-14T10:00:48.043Z,2868
2018-01-14T10:01:13.514Z,2892
2018-01-14T10:01:39.003Z,2932
2018-01-14T10:02:04.550Z,2932
2018-01-14T10:02:30.024Z,2860
2018-01-14T10:02:55.509Z,2804
2018-01-14T10:03:21.006Z,2804
2018-01-14T10:03:46.483Z,2860
2018-01-14T10:04:11.953Z,2880
2018-01-14T10:04:37.422Z,2892
2018-01-14T10:05:02.881Z,2960
2018-01-14T10:05:28.397Z,2976
2018-01-14T10:05:53.837Z,2948
2018-01-14T10:06:19.322Z,2964
2018-01-14T10:06:44.833Z,2968
2018-01-14T10:07:10.381Z,2928
2018-01-14T10:07:35.829Z,2928
2018-01-14T10:08:01.331Z,2912
2018-01-14T10:08:26.789Z,2900
2018-01-14T10:08:52.268Z,2920
2018-01-14T10:09:17.720Z,2916
2018-01-14T10:09:43.194Z,2896
2018-01-14T10:10:08.702Z,2908
2018-01-14T10:10:34.147Z,2944
2018-01-14T10:10:59.601Z,2980
2018-01-14T10:11:25.180Z,3008
2018-01-14T10:12:33.889Z,2952
2018-01-14T10:12:59.369Z,2980
2018-01-14T10:13:24.838Z,2908
2018-01-14T10:13:50.294Z,2884
2018-01-14T10:14:15.748Z,2860
2018-01-14T10:14:41.216Z,2812
2018-01-14T10:15:06.682Z,2828
2018-01-14T10:15:32.122Z,2820
2018-01-14T10:15:57.607Z,2872
2018-01-14T10:16:23.036Z,2924
2018-01-14T10:16:48.496Z,2912
2018-01-14T10:17:14.059Z,2916
2018-01-14T10:17:39.511Z,2948
2018-01-14T10:18:04.996Z,3016
2018-01-14T10:18:30.481Z,3028
2018-01-14T10:18:55.930Z,2980
2018-01-14T10:19:21.431Z,3008
2018-01-14T10:19:46.924Z,3128
2018-01-14T10:20:12.350Z,3120
2018-01-14T10:20:37.823Z,3016
2018-01-14T10:21:03.271Z,2988
2018-01-14T10:21:28.772Z,3068
2018-01-14T10:21:54.203Z,3128
2018-01-14T10:22:19.662Z,3080
2018-01-14T10:22:45.137Z,3056
2018-01-14T10:23:10.577Z,3120
2018-01-14T10:23:36.033Z,3140
2018-01-14T10:24:01.528Z,3136
2018-01-14T10:24:26.997Z,3164
2018-01-14T10:24:52.439Z,3184
2018-01-14T10:25:17.892Z,3248
2018-01-14T10:25:43.379Z,3308
2018-01-14T10:26:08.840Z,3312
2018-01-14T10:26:34.298Z,3352
2018-01-14T10:26:59.754Z,3396
2018-01-14T10:28:08.459Z,3440
2018-01-14T10:28:33.967Z,3440
2018-01-14T10:28:59.455Z,3552
2018-01-14T10:29:24.965Z,3600
2018-01-14T10:29:50.416Z,3500
2018-01-14T10:30:15.875Z,3420
2018-01-14T10:30:41.420Z,3516
2018-01-14T10:31:06.864Z,3656
2018-01-14T10:31:32.340Z,3644
2018-01-14T10:31:57.802Z,3584
2018-01-14T10:32:23.312Z,3584
2018-01-14T10:32:48.797Z,3632
2018-01-14T10:33:52.578Z,3664
2018-01-14T10:34:18.016Z,3600
2018-01-14T10:35:36.958Z,3616
2018-01-14T10:36:02.463Z,3548
2018-01-14T10:36:27.929Z,3512
2018-01-14T10:36:53.398Z,3592
2018-01-14T10:37:18.907Z,3644
2018-01-14T10:37:44.363Z,3560
2018-01-14T10:38:09.848Z,3508
2018-01-14T10:38:35.308Z,3520
2018-01-14T10:39:00.791Z,3648
2018-01-14T10:39:26.285Z,3780
2018-01-14T10:39:51.753Z,3668
2018-01-14T10:40:17.264Z,3592
2018-01-14T10:40:42.723Z,3624
2018-01-14T10:41:08.223Z,3688
2018-01-14T10:41:33.745Z,3752
2018-01-14T10:41:59.258Z,3768
2018-01-14T10:42:24.694Z,3700
2018-01-14T10:43:43.642Z,3868
2018-01-14T10:44:09.126Z,3736
2018-01-14T10:44:34.625Z,3652
2018-01-14T10:45:00.143Z,3684
2018-01-14T10:45:25.649Z,3760
2018-01-14T10:45:51.139Z,3712
2018-01-14T10:46:16.636Z,3708
2018-01-14T10:46:42.085Z,3712
2018-01-14T10:47:07.601Z,3648
2018-01-14T10:47:33.045Z,3608
2018-01-14T10:48:37.409Z,3620
2018-01-14T10:49:02.868Z,3580
2018-01-14T10:49:28.440Z,3552
2018-01-14T10:49:53.912Z,3564
2018-01-14T10:50:19.389Z,3700
2018-01-14T10:50:44.857Z,3684
2018-01-14T10:51:53.569Z,3700
2018-01-14T10:52:19.053Z,3716
2018-01-14T10:52:44.531Z,3668
2018-01-14T10:53:10.401Z,3664
2018-01-14T10:53:35.956Z,3644
2018-01-14T10:54:01.580Z,3588
2018-01-14T10:54:27.260Z,3580
2018-01-14T10:54:53.149Z,3668
2018-01-14T10:55:18.716Z,3676
2018-01-14T10:55:44.337Z,3664
2018-01-14T10:56:09.986Z,3668
2018-01-14T10:56:35.691Z,3712
2018-01-14T10:57:01.200Z,3812
2018-01-14T10:57:26.661Z,3924
2018-01-14T10:57:52.173Z,3876
2018-01-14T10:59:11.409Z,4076
2018-01-14T10:59:36.906Z,4100
2018-01-14T11:00:51.682Z,4064
2018-01-14T11:01:17.191Z,4092
2018-01-14T11:01:42.821Z,4100
2018-01-14T11:02:08.165Z,4004
2018-01-14T11:02:33.634Z,4040
2018-01-14T11:02:59.085Z,4012
2018-01-14T11:03:24.583Z,4004
2018-01-14T11:03:50.020Z,4024
2018-01-14T11:04:15.461Z,4072
2018-01-14T11:04:40.970Z,4036
2018-01-14T11:05:06.434Z,4012
2018-01-14T11:05:31.920Z,3960
2018-01-14T11:05:57.356Z,3952
2018-01-14T11:07:00.967Z,3920
2018-01-14T11:07:26.445Z,3992
2018-01-14T11:07:51.913Z,4020
2018-01-14T11:08:17.357Z,3980
2018-01-14T11:08:42.818Z,3992
2018-01-14T11:09:08.281Z,4000
2018-01-14T11:09:33.765Z,4040
2018-01-14T11:09:59.229Z,4004
2018-01-14T11:10:24.694Z,3964
2018-01-14T11:10:50.229Z,3944
2018-01-14T11:11:15.680Z,3916
2018-01-14T11:11:41.139Z,3880
2018-01-14T11:12:06.619Z,3872
2018-01-14T11:12:32.110Z,3880
2018-01-14T11:12:57.619Z,3912
2018-01-14T11:13:23.045Z,4004
2018-01-14T11:13:48.521Z,4064
2018-01-14T11:14:13.990Z,4072
2018-01-14T11:14:39.444Z,4004
2018-01-14T11:15:04.931Z,3932
2018-01-14T11:15:30.410Z,3904
2018-01-14T11:15:55.905Z,3900
2018-01-14T11:16:21.422Z,3912
2018-01-14T11:16:46.855Z,3928
2018-01-14T11:17:12.283Z,3852
2018-01-14T11:17:37.781Z,3812
2018-01-14T11:18:03.234Z,3824
2018-01-14T11:18:28.760Z,3856
2018-01-14T11:18:54.223Z,3884
2018-01-14T11:19:19.740Z,4004
2018-01-14T11:19:45.239Z,4108
2018-01-14T11:20:10.674Z,4000
2018-01-14T11:20:36.147Z,4000
2018-01-14T11:21:01.576Z,4008
2018-01-14T11:21:27.139Z,4052
2018-01-14T11:21:52.660Z,4016
2018-01-14T11:22:18.076Z,3952
2018-01-14T11:22:43.570Z,4056
2018-01-14T11:23:09.041Z,4016
2018-01-14T11:23:34.544Z,3952
2018-01-14T11:24:00.024Z,3996
2018-01-14T11:24:25.489Z,4080
2018-01-14T11:24:51.041Z,4020
2018-01-14T11:25:16.506Z,3952
2018-01-14T11:26:40.533Z,4036
2018-01-14T11:27:06.024Z,4144
2018-01-14T11:27:31.506Z,4168
2018-01-14T11:27:56.934Z,4200
2018-01-14T11:28:22.444Z,4224
2018-01-14T11:28:47.912Z,4236
2018-01-14T11:29:13.392Z,4224
2018-01-14T11:29:38.839Z,4220
2018-01-14T11:30:04.333Z,4184
2018-01-14T11:30:29.776Z,4192
2018-01-14T11:30:55.256Z,4192
2018-01-14T11:31:20.751Z,4176
2018-01-14T11:31:46.251Z,4156
2018-01-14T11:32:11.761Z,4136
2018-01-14T11:32:37.272Z,4148
2018-01-14T11:33:02.774Z,4136
2018-01-14T11:33:28.270Z,4096
2018-01-14T11:33:53.733Z,4140
2018-01-14T11:35:18.092Z,4212
2018-01-14T11:35:43.572Z,4236
2018-01-14T11:36:09.126Z,4108